Time;durP1;ratioP1;P1;durP2;ratioP2;P2;SDS_P1;SDS_P2;PMS_P1;PMS_P2;Temp;Humidity;BMP_temperature;BMP_pressure;BME280_temperature;BME280_humidity;BME280_pressure;Samples;Min_cycle;Max_cycle;Signal;HPM_P1;HPM_P2
2021/07/12 00:02:52;;;;;;;1.75;0.60;;;;;;;13.84;100.00;99563.84;5018321;28;20375;-54
2021/07/12 00:05:55;;;;;;;1.67;0.50;;;;;;;13.85;100.00;99562.56;5019216;28;20044;-54
2021/07/12 00:09:00;;;;;;;1.63;0.77;;;;;;;13.76;100.00;99560.00;5017490;28;20032;-54
2021/07/12 00:12:04;;;;;;;1.70;0.30;;;;;;;13.73;100.00;99553.38;5017329;28;20142;-54
2021/07/12 00:15:10;;;;;;;1.33;0.45;;;;;;;13.73;100.00;99563.81;5018603;28;20059;-54
2021/07/12 00:18:13;;;;;;;2.42;0.73;;;;;;;13.67;100.00;99556.16;5020780;28;20320;-54
2021/07/12 00:21:19;;;;;;;1.13;0.57;;;;;;;13.66;100.00;99560.22;5024745;28;20064;-54
2021/07/12 00:24:23;;;;;;;2.28;0.40;;;;;;;13.66;100.00;99554.63;5022736;28;20275;-54
2021/07/12 00:27:27;;;;;;;1.20;0.20;;;;;;;13.68;100.00;99548.53;5020152;28;20048;-54
2021/07/12 00:30:30;;;;;;;3.15;0.55;;;;;;;13.66;100.00;99554.63;5017032;28;20548;-54
2021/07/12 00:33:34;;;;;;;0.65;0.30;;;;;;;13.67;100.00;99549.78;5017219;28;20040;-54
2021/07/12 00:36:38;;;;;;;1.85;0.20;;;;;;;13.66;100.00;99543.44;5016930;28;20040;-53
2021/07/12 00:39:41;;;;;;;1.80;0.30;;;;;;;13.66;100.00;99549.03;5016711;28;20317;-54
2021/07/12 00:42:46;;;;;;;1.85;0.25;;;;;;;13.67;100.00;99544.97;5017757;28;20040;-54
2021/07/12 00:45:51;;;;;;;0.38;0.25;;;;;;;13.68;100.00;99540.91;5016996;28;20028;-54
2021/07/12 00:48:54;;;;;;;2.03;0.60;;;;;;;13.56;100.00;99538.56;5015595;28;20073;-54
2021/07/12 00:51:59;;;;;;;3.47;0.20;;;;;;;13.53;100.00;99537.56;5016524;28;20043;-53
2021/07/12 00:55:15;;;;;;;0.40;0.30;;;;;;;13.54;100.00;99519.50;5017873;28;20068;-54
2021/07/12 00:58:25;;;;;;;1.15;0.35;;;;;;;13.55;100.00;99515.44;5017115;28;20596;-53
2021/07/12 01:01:29;;;;;;;2.03;0.45;;;;;;;13.52;100.00;99513.63;5017059;28;20040;-53
2021/07/12 01:04:36;;;;;;;2.58;0.68;;;;;;;13.53;100.00;99517.19;5016664;28;20041;-53
2021/07/12 01:07:41;;;;;;;5.65;0.75;;;;;;;13.52;100.00;99510.06;5016508;28;20032;-53
2021/07/12 01:10:51;;;;;;;0.52;0.20;;;;;;;13.54;100.00;99507.53;5017359;28;20757;-53
2021/07/12 01:14:02;;;;;;;10.05;0.50;;;;;;;13.53;100.00;99509.59;4997177;28;20036;-54
2021/07/12 01:17:19;;;;;;;2.85;0.68;;;;;;;13.55;100.00;99511.88;4996397;28;20049;-54
2021/07/12 01:20:46;;;;;;;3.15;0.77;;;;;;;13.50;100.00;99507.78;4997491;28;20049;-53
2021/07/12 01:24:20;;;;;;;1.33;0.20;;;;;;;13.50;100.00;99504.97;4997372;28;20256;-54
2021/07/12 01:27:42;;;;;;;0.30;0.15;;;;;;;13.49;100.00;99506.25;4994495;28;20048;-53
2021/07/12 01:31:10;;;;;;;1.02;0.63;;;;;;;13.51;100.00;99509.28;4994659;28;20180;-53
2021/07/12 01:34:47;;;;;;;2.33;0.65;;;;;;;13.48;100.00;99501.94;4995797;28;20057;-53
2021/07/12 01:38:10;;;;;;;1.30;0.40;;;;;;;13.50;100.00;99507.78;4995197;28;20045;-53
2021/07/12 01:41:17;;;;;;;1.77;0.57;;;;;;;13.48;100.00;99512.34;4995437;28;20057;-53
2021/07/12 01:44:23;;;;;;;6.70;0.40;;;;;;;13.51;100.00;99514.88;4995215;28;20266;-54
2021/07/12 01:47:41;;;;;;;1.15;0.20;;;;;;;13.53;100.00;99517.19;4994700;28;20033;-54
2021/07/12 01:50:50;;;;;;;3.42;0.30;;;;;;;13.53;100.00;99517.97;4996102;28;20154;-54
2021/07/12 01:54:06;;;;;;;0.40;0.20;;;;;;;13.55;100.00;99509.84;4994893;28;20117;-53
2021/07/12 01:57:20;;;;;;;2.38;1.00;;;;;;;13.58;100.00;99525.59;4994125;28;20044;-54
2021/07/12 02:00:26;;;;;;;6.75;0.52;;;;;;;13.59;100.00;99515.94;4992751;28;20069;-54
2021/07/12 02:03:31;;;;;;;4.28;0.60;;;;;;;13.63;100.00;99522.06;4993201;28;20040;-53
2021/07/12 02:06:40;;;;;;;2.67;0.65;;;;;;;13.69;100.00;99514.44;4993323;28;20053;-53
2021/07/12 02:09:47;;;;;;;1.35;0.40;;;;;;;13.68;100.00;99518.53;4995136;28;20056;-54
2021/07/12 02:12:53;;;;;;;1.02;0.63;;;;;;;13.73;100.00;99513.44;5007192;28;20328;-54
2021/07/12 02:16:02;;;;;;;1.25;0.28;;;;;;;13.75;100.00;99513.69;5014402;28;20064;-54
2021/07/12 02:19:07;;;;;;;0.70;0.20;;;;;;;13.77;100.00;99516.75;5012376;28;20122;-54
2021/07/12 02:22:12;;;;;;;4.28;0.60;;;;;;;13.75;100.00;99516.50;5013341;28;20060;-53
2021/07/12 02:25:17;;;;;;;1.88;0.77;;;;;;;13.74;100.00;99510.13;5012853;28;20036;-54
2021/07/12 02:28:22;;;;;;;0.20;0.10;;;;;;;13.74;100.00;99514.97;5018248;28;20052;-53
2021/07/12 02:31:27;;;;;;;5.43;0.82;;;;;;;13.80;100.00;99518.53;5030254;28;20044;-53
2021/07/12 02:34:32;;;;;;;0.43;0.30;;;;;;;13.80;100.00;99513.69;5062868;28;20504;-53
2021/07/12 02:37:39;;;;;;;0.90;0.82;;;;;;;13.80;100.00;99518.53;5052244;28;20389;-53
2021/07/12 02:40:45;;;;;;;3.28;0.40;;;;;;;13.85;100.00;99512.19;5051844;28;20056;-53
2021/07/12 02:43:49;;;;;;;3.00;0.68;;;;;;;13.82;100.00;99505.56;5052408;28;20048;-54
2021/07/12 02:46:53;;;;;;;1.65;0.57;;;;;;;13.84;100.00;99507.88;5051810;28;20048;-53
2021/07/12 02:49:56;;;;;;;2.78;0.40;;;;;;;13.77;100.00;99503.53;5051532;28;20410;-53
2021/07/12 02:53:10;;;;;;;3.30;0.57;;;;;;;13.79;100.00;99501.00;5052541;28;20051;-53
2021/07/12 02:56:14;;;;;;;1.90;0.52;;;;;;;13.80;100.00;99505.31;5052072;28;20044;-53
2021/07/12 02:59:19;;;;;;;1.95;0.40;;;;;;;13.86;100.00;99499.72;5052275;28;20048;-53
2021/07/12 03:02:23;;;;;;;2.30;0.60;;;;;;;13.83;100.00;99495.13;5051740;28;20047;-53
2021/07/12 03:05:26;;;;;;;4.47;0.50;;;;;;;13.81;100.00;99489.28;5052088;28;20158;-53
2021/07/12 03:08:48;;;;;;;0.20;0.20;;;;;;;13.82;100.00;99485.22;5051914;28;20044;-54
2021/07/12 03:12:13;;;;;;;;;;;;;;;13.83;100.00;99478.34;5063015;28;20047;-54
2021/07/12 03:15:37;;;;;;;2.30;0.40;;;;;;;13.89;100.00;99474.28;5051561;28;19917;-54
2021/07/12 03:18:46;;;;;;;2.47;0.28;;;;;;;13.78;100.00;99479.09;5052160;28;20044;-53
2021/07/12 03:21:52;;;;;;;5.55;0.75;;;;;;;13.78;100.00;99471.47;5052023;28;20048;-53
2021/07/12 03:24:59;;;;;;;0.35;0.22;;;;;;;13.77;100.00;99472.75;5052373;28;20067;-54
2021/07/12 03:28:04;;;;;;;2.22;0.70;;;;;;;13.78;100.00;99476.28;5052056;28;20405;-53
2021/07/12 03:31:09;;;;;;;0.88;0.30;;;;;;;13.74;100.00;99470.94;5052329;28;20067;-53
2021/07/12 03:34:15;;;;;;;1.95;0.35;;;;;;;13.76;100.00;99464.84;5052227;28;20048;-53
2021/07/12 03:37:23;;;;;;;1.55;0.55;;;;;;;13.77;100.00;99463.56;5052174;28;20047;-53
2021/07/12 03:40:27;;;;;;;0.35;0.35;;;;;;;13.76;100.00;99459.25;5052134;28;20048;-53
2021/07/12 03:43:30;;;;;;;3.33;1.00;;;;;;;13.75;100.00;99455.69;5052012;28;20044;-53
2021/07/12 03:46:34;;;;;;;1.80;0.40;;;;;;;13.75;100.00;99458.50;5052056;28;20048;-53
2021/07/12 03:49:37;;;;;;;0.63;0.38;;;;;;;13.78;100.00;99465.09;5050718;28;20520;-53
2021/07/12 03:52:49;;;;;;;2.78;0.40;;;;;;;13.72;100.00;99458.72;5051995;28;20382;-54
2021/07/12 03:55:52;;;;;;;1.55;0.22;;;;;;;13.71;100.00;99460.75;5051925;28;20068;-54
2021/07/12 03:58:56;;;;;;;1.98;0.45;;;;;;;13.73;100.00;99461.00;5051929;28;20048;-53
2021/07/12 04:01:59;;;;;;;2.50;0.80;;;;;;;13.75;100.00;99454.94;5054371;28;20044;-53
2021/07/12 04:05:04;;;;;;;12.82;0.95;;;;;;;13.74;100.00;99465.34;5055970;28;20060;-53
2021/07/12 04:08:08;;;;;;;1.48;0.35;;;;;;;13.69;100.00;99469.66;5055484;28;20048;-53
2021/07/12 04:11:12;;;;;;;1.05;0.38;;;;;;;13.74;100.00;99461.78;5055343;28;20048;-53
2021/07/12 04:14:16;;;;;;;2.15;0.30;;;;;;;13.75;100.00;99461.28;5035243;28;20056;-53
2021/07/12 04:17:20;;;;;;;2.28;0.20;;;;;;;13.75;100.00;99455.69;5035281;28;20501;-54
2021/07/12 04:20:24;;;;;;;6.22;0.60;;;;;;;13.72;100.00;99459.50;5035135;28;20394;-53
2021/07/12 04:23:27;;;;;;;1.10;0.60;;;;;;;13.74;100.00;99459.75;5034485;28;20068;-53
2021/07/12 04:26:31;;;;;;;0.88;0.40;;;;;;;13.75;100.00;99461.28;5034943;28;20057;-53
2021/07/12 04:29:34;;;;;;;1.65;0.73;;;;;;;13.76;100.00;99451.63;5035324;28;20048;-53
2021/07/12 04:32:38;;;;;;;2.13;0.32;;;;;;;13.80;100.00;99465.34;5034986;28;20049;-53
2021/07/12 04:35:41;;;;;;;2.63;0.65;;;;;;;13.82;100.00;99454.44;5035326;28;20053;-53
2021/07/12 04:38:44;;;;;;;3.63;0.22;;;;;;;13.84;100.00;99452.63;5034642;28;20060;-53
2021/07/12 04:41:48;;;;;;;1.75;0.45;;;;;;;13.84;100.00;99451.88;5034968;28;20048;-54
2021/07/12 04:44:51;;;;;;;0.60;0.47;;;;;;;13.83;100.00;99453.91;5034746;28;20052;-53
2021/07/12 04:47:54;;;;;;;3.13;0.68;;;;;;;13.91;100.00;99456.97;5033486;28;20044;-53
2021/07/12 04:50:58;;;;;;;2.38;0.40;;;;;;;13.84;100.00;99451.88;5034122;28;20057;-53
2021/07/12 04:54:01;;;;;;;1.33;0.47;;;;;;;13.90;100.00;99461.06;5033954;28;20052;-53
2021/07/12 04:57:05;;;;;;;1.90;0.55;;;;;;;13.91;100.00;99451.38;5034172;28;20052;-53
2021/07/12 05:00:09;;;;;;;0.85;0.50;;;;;;;13.95;100.00;99449.06;5034504;28;20053;-53
2021/07/12 05:03:16;;;;;;;2.40;0.60;;;;;;;14.00;100.00;99448.31;5034398;28;20521;-53
2021/07/12 05:06:20;;;;;;;1.40;0.60;;;;;;;13.95;100.00;99452.63;5034282;28;20048;-54
2021/07/12 05:09:23;;;;;;;1.58;0.60;;;;;;;13.85;100.00;99447.81;5034064;28;20386;-54
2021/07/12 05:12:27;;;;;;;2.53;0.30;;;;;;;13.92;100.00;99441.72;5042368;28;20048;-54
2021/07/12 05:15:30;;;;;;;1.38;0.45;;;;;;;13.94;100.00;99441.97;5054536;28;20048;-54
2021/07/12 05:18:33;;;;;;;2.50;0.45;;;;;;;14.00;100.00;99448.31;5054160;28;20040;-54
2021/07/12 05:21:36;;;;;;;5.20;0.60;;;;;;;14.02;100.00;99440.94;5053942;28;20048;-53
2021/07/12 05:24:40;;;;;;;1.20;0.38;;;;;;;14.05;100.00;99437.13;5053630;28;20051;-53
2021/07/12 05:27:43;;;;;;;2.95;0.60;;;;;;;14.13;100.00;99448.56;5053666;28;20056;-53
2021/07/12 05:30:47;;;;;;;3.28;0.50;;;;;;;14.19;100.00;99443.72;5053915;28;20059;-54
2021/07/12 05:33:50;;;;;;;0.80;0.52;;;;;;;14.25;100.00;99447.31;5053660;28;20052;-54
2021/07/12 05:36:54;;;;;;;1.45;0.82;;;;;;;14.33;100.00;99451.16;5053498;28;20064;-54
2021/07/12 05:39:57;;;;;;;1.80;0.52;;;;;;;14.40;100.00;99453.44;5053408;28;20052;-54
2021/07/12 05:43:00;;;;;;;8.25;1.20;;;;;;;14.48;100.00;99448.84;5053783;28;20052;-54
2021/07/12 05:46:05;;;;;;;3.90;0.70;;;;;;;14.52;100.00;99451.34;5053623;28;20047;-54
2021/07/12 05:49:08;;;;;;;17.38;0.82;;;;;;;14.61;100.00;99451.09;5053746;28;20039;-54
2021/07/12 05:52:12;;;;;;;3.03;0.65;;;;;;;14.71;100.00;99455.91;5053157;28;20051;-53
2021/07/12 05:55:15;;;;;;;2.78;0.63;;;;;;;14.62;100.00;99450.56;5053132;28;20048;-54
2021/07/12 05:58:18;;;;;;;7.88;0.82;;;;;;;14.69;100.00;99446.47;5052846;28;20056;-53
2021/07/12 06:01:22;;;;;;;3.35;0.73;;;;;;;14.77;100.00;99453.84;5053117;28;20500;-53
2021/07/12 06:04:26;;;;;;;1.20;0.43;;;;;;;14.83;100.00;99451.81;5053715;28;20429;-54
2021/07/12 06:07:29;;;;;;;3.72;0.75;;;;;;;14.96;100.00;99454.06;5053605;28;20044;-53
2021/07/12 06:10:32;;;;;;;2.55;0.43;;;;;;;14.99;100.00;99450.97;5053343;28;20460;-53
2021/07/12 06:13:37;;;;;;;2.90;0.93;;;;;;;15.02;100.00;99452.75;5053167;28;20064;-53
2021/07/12 06:16:40;;;;;;;2.40;0.52;;;;;;;15.05;100.00;99453.78;5053203;28;20048;-53
2021/07/12 06:19:44;;;;;;;1.88;0.52;;;;;;;15.11;100.00;99449.66;5052853;28;20421;-53
2021/07/12 06:22:49;;;;;;;1.58;0.30;;;;;;;15.04;100.00;99449.44;5053155;28;20048;-53
2021/07/12 06:25:52;;;;;;;3.95;0.73;;;;;;;14.96;100.00;99449.22;5052550;28;20402;-54
2021/07/12 06:28:56;;;;;;;9.05;0.82;;;;;;;14.95;100.00;99453.28;5052698;28;20047;-54
2021/07/12 06:31:59;;;;;;;2.58;0.20;;;;;;;14.91;100.00;99452.78;5052884;28;20047;-54
2021/07/12 06:35:04;;;;;;;1.52;1.20;;;;;;;14.87;100.00;99452.31;5052904;28;20048;-54
2021/07/12 06:38:07;;;;;;;0.75;0.43;;;;;;;14.82;100.00;99444.66;5052734;28;20057;-53
2021/07/12 06:41:11;;;;;;;3.65;0.93;;;;;;;14.87;100.00;99449.50;5052948;28;20051;-53
2021/07/12 06:44:14;;;;;;;0.95;0.63;;;;;;;14.89;100.00;99458.16;5052391;28;20594;-54
2021/07/12 06:47:17;;;;;;;0.57;0.22;;;;;;;14.87;100.00;99457.91;5052767;28;20044;-54
2021/07/12 06:50:22;;;;;;;1.95;0.60;;;;;;;14.86;100.00;99450.75;5052362;28;20509;-54
2021/07/12 06:53:26;;;;;;;0.90;0.20;;;;;;;14.91;100.00;99458.41;5052572;28;20044;-54
2021/07/12 06:56:30;;;;;;;4.95;1.30;;;;;;;14.91;100.00;99447.19;5052097;28;20044;-54
2021/07/12 06:59:34;;;;;;;3.00;1.13;;;;;;;14.92;100.00;99453.56;5052903;28;20056;-54
2021/07/12 07:02:37;;;;;;;7.18;1.23;;;;;;;14.89;100.00;99449.75;5052020;28;20064;-54
2021/07/12 07:05:40;;;;;;;3.03;0.88;;;;;;;14.88;100.00;99453.81;5051131;28;20048;-54
2021/07/12 07:08:44;;;;;;;2.90;0.43;;;;;;;14.86;100.00;99456.38;5051346;28;20052;-54
2021/07/12 07:11:47;;;;;;;3.95;0.75;;;;;;;14.86;100.00;99456.38;5052185;28;20077;-54
2021/07/12 07:14:50;;;;;;;2.45;0.63;;;;;;;14.87;100.00;99462.75;5052047;28;20048;-54
2021/07/12 07:17:55;;;;;;;1.40;0.43;;;;;;;14.85;100.00;99466.06;5052039;28;20052;-54
2021/07/12 07:20:59;;;;;;;2.65;0.70;;;;;;;14.85;100.00;99457.66;5051711;28;20055;-54
2021/07/12 07:24:03;;;;;;;0.95;0.35;;;;;;;14.82;100.00;99467.09;5051951;28;20048;-54
2021/07/12 07:27:07;;;;;;;2.42;1.25;;;;;;;14.79;100.00;99470.16;5051956;28;20060;-53
2021/07/12 07:30:11;;;;;;;3.05;0.68;;;;;;;14.81;100.00;99468.34;5052290;28;20056;-53
2021/07/12 07:33:15;;;;;;;2.75;0.90;;;;;;;14.77;100.00;99467.88;5052438;28;20048;-53
2021/07/12 07:36:18;;;;;;;3.30;0.70;;;;;;;14.77;100.00;99470.66;5053805;28;20108;-54
2021/07/12 07:39:23;;;;;;;1.15;0.50;;;;;;;14.71;100.00;99477.56;5055810;28;20401;-54
2021/07/12 07:42:26;;;;;;;4.03;0.82;;;;;;;14.71;100.00;99478.31;5056032;28;20044;-53
2021/07/12 07:45:32;;;;;;;4.60;1.08;;;;;;;14.78;100.00;99477.81;5055953;28;20055;-53
2021/07/12 07:48:35;;;;;;;1.55;0.50;;;;;;;14.76;100.00;99480.38;5055684;28;20056;-54
2021/07/12 07:51:40;;;;;;;2.35;0.95;;;;;;;14.79;100.00;99470.91;5055631;28;20055;-55
2021/07/12 07:54:43;;;;;;;6.57;1.02;;;;;;;14.75;100.00;99473.22;5055751;28;20052;-55
2021/07/12 07:57:47;;;;;;;16.70;3.78;;;;;;;14.83;100.00;99479.06;5054846;28;20048;-54
2021/07/12 08:00:50;;;;;;;5.63;1.42;;;;;;;14.77;100.00;99476.28;5056054;28;20055;-54
2021/07/12 08:03:54;;;;;;;1.63;1.00;;;;;;;14.80;100.00;99474.47;5055813;28;20056;-54
2021/07/12 08:06:57;;;;;;;3.67;0.60;;;;;;;14.79;100.00;99473.72;5055516;28;20047;-55
2021/07/12 08:10:00;;;;;;;0.52;0.20;;;;;;;14.82;100.00;99466.31;5055617;28;20064;-55
2021/07/12 08:13:09;;;;;;;0.80;0.30;;;;;;;14.83;100.00;99474.25;5055531;28;20055;-55
2021/07/12 08:16:13;;;;;;;0.25;0.20;;;;;;;14.88;100.00;99470.63;5055918;28;20048;-55
2021/07/12 08:19:17;;;;;;;0.22;0.20;;;;;;;14.96;100.00;99466.03;5055492;28;20566;-55
2021/07/12 08:22:20;;;;;;;1.38;0.40;;;;;;;15.03;100.00;99473.13;5055623;28;20048;-55
2021/07/12 08:25:24;;;;;;;2.78;0.50;;;;;;;14.99;100.00;99467.81;5054829;28;20064;-55
2021/07/12 08:28:29;;;;;;;0.80;0.30;;;;;;;14.95;100.00;99481.31;5054638;28;20401;-54
2021/07/12 08:31:33;;;;;;;1.85;0.30;;;;;;;14.95;100.00;99486.94;5055198;28;20044;-54
2021/07/12 08:34:42;;;;;;;0.50;0.10;;;;;;;14.98;100.00;99491.53;5055035;28;20052;-54
2021/07/12 08:37:49;;;;;;;1.05;0.35;;;;;;;15.09;100.00;99480.25;5054861;28;20055;-54
2021/07/12 08:40:55;;;;;;;0.10;0.10;;;;;;;15.11;100.00;99476.94;5055041;28;20052;-54
2021/07/12 08:43:59;;;;;;;1.17;0.55;;;;;;;15.23;100.00;99478.41;5054932;28;20052;-55
2021/07/12 08:47:02;;;;;;;4.15;0.80;;;;;;;15.18;100.00;99479.97;5055057;28;20051;-55
2021/07/12 08:50:06;;;;;;;0.55;0.20;;;;;;;15.22;100.00;99481.75;5055038;28;20040;-55
2021/07/12 08:53:13;;;;;;;1.95;0.50;;;;;;;15.45;100.00;99480.38;5054547;28;20064;-55
2021/07/12 08:56:16;;;;;;;0.82;0.45;;;;;;;15.64;100.00;99472.88;5054830;28;20055;-55
2021/07/12 08:59:31;;;;;;;2.67;0.50;;;;;;;15.88;100.00;99476.56;5054318;28;20047;-55
2021/07/12 09:02:37;;;;;;;0.28;0.20;;;;;;;15.90;100.00;99473.22;5054296;28;20048;-55
2021/07/12 09:05:56;;;;;;;0.85;0.50;;;;;;;16.01;100.00;99472.38;5053762;28;20052;-55
2021/07/12 09:09:06;;;;;;;0.68;0.10;;;;;;;16.12;100.00;99473.06;5054433;28;20052;-55
2021/07/12 09:12:15;;;;;;;1.48;0.52;;;;;;;16.23;100.00;99478.59;5054133;28;20051;-54
2021/07/12 09:15:22;;;;;;;0.20;0.10;;;;;;;16.31;100.00;99473.91;5054268;28;20051;-58
2021/07/12 09:18:34;;;;;;;1.42;0.60;;;;;;;16.49;100.00;99466.84;5054261;28;20053;-58
2021/07/12 09:21:46;;;;;;;0.90;0.28;;;;;;;16.70;100.00;99479.19;5054418;28;20394;-58
2021/07/12 09:24:56;;;;;;;0.75;0.43;;;;;;;16.80;100.00;99474.75;5054128;28;20048;-58
2021/07/12 09:28:00;;;;;;;1.70;0.50;;;;;;;16.95;100.00;99474.34;5053895;28;20059;-58
2021/07/12 09:31:24;;;;;;;0.82;0.40;;;;;;;17.03;100.00;99464.00;5053867;28;20414;-58
2021/07/12 09:34:27;;;;;;;1.30;0.35;;;;;;;17.15;100.00;99468.22;5053441;28;20370;-58
2021/07/12 09:37:30;;;;;;;0.93;0.30;;;;;;;17.23;100.00;99463.50;5052781;28;20493;-58
2021/07/12 09:40:34;;;;;;;2.05;0.10;;;;;;;17.51;100.00;99458.31;5053792;28;20044;-58
2021/07/12 09:43:37;;;;;;;1.42;0.30;;;;;;;17.68;100.00;99450.38;5053292;28;20052;-58
2021/07/12 09:46:40;;;;;;;2.47;0.50;;;;;;;17.72;100.00;99442.38;5053280;28;20052;-58
2021/07/12 09:49:45;;;;;;;1.67;0.10;;;;;;;17.81;100.00;99450.44;5052911;28;20044;-57
2021/07/12 09:52:54;;;;;;;0.73;0.15;;;;;;;17.97;100.00;99455.06;5053275;28;20052;-58
2021/07/12 09:56:08;;;;;;;1.63;0.25;;;;;;;17.98;100.00;99445.28;5053248;28;20488;-58
2021/07/12 09:59:16;;;;;;;0.20;0.10;;;;;;;17.93;100.00;99446.13;5052736;28;20412;-58
2021/07/12 10:02:23;;;;;;;0.95;0.28;;;;;;;17.89;100.00;99442.88;5053240;28;20052;-58
2021/07/12 10:05:26;;;;;;;0.15;0.15;;;;;;;17.93;100.00;99434.88;5053297;28;20048;-58
2021/07/12 10:08:30;;;;;;;1.52;0.43;;;;;;;18.09;100.00;99433.84;5052845;28;20047;-58
2021/07/12 10:11:35;;;;;;;2.78;0.22;;;;;;;18.21;100.00;99430.84;5053002;28;20047;-58
2021/07/12 10:14:40;;;;;;;1.05;0.30;;;;;;;18.24;100.00;99432.56;5052493;28;20040;-59
2021/07/12 10:17:44;;;;;;;1.45;0.40;;;;;;;18.14;100.00;99429.41;5052059;28;20496;-58
2021/07/12 10:20:51;;;;;;;1.60;0.35;;;;;;;18.11;100.00;99419.22;5052578;28;20044;-58
2021/07/12 10:23:57;;;;;;;2.35;0.65;;;;;;;18.07;100.00;99425.16;5052891;28;20052;-58
2021/07/12 10:27:02;;;;;;;2.53;0.57;;;;;;;17.92;100.00;99427.72;5052452;28;20056;-59
2021/07/12 10:30:20;;;;;;;3.47;0.70;;;;;;;17.73;100.00;99434.69;5052919;28;20544;-58
2021/07/12 10:33:32;;;;;;;1.50;0.65;;;;;;;17.57;100.00;99439.25;5051595;28;20048;-58
2021/07/12 10:36:37;;;;;;;0.75;0.17;;;;;;;17.43;100.00;99446.09;5052046;28;20393;-58
2021/07/12 10:39:56;;;;;;;1.33;0.30;;;;;;;17.28;100.00;99440.16;5052131;28;20044;-58
2021/07/12 10:43:00;;;;;;;1.02;0.40;;;;;;;17.17;100.00;99443.13;5052417;28;20060;-57
2021/07/12 10:46:04;;;;;;;2.85;0.40;;;;;;;17.10;100.00;99446.53;5052530;28;20386;-59
2021/07/12 10:49:32;;;;;;;1.00;0.43;;;;;;;17.00;100.00;99443.31;5052523;28;20048;-59
2021/07/12 10:52:43;;;;;;;1.30;0.55;;;;;;;17.02;100.00;99445.63;5051606;28;20047;-59
2021/07/12 10:56:05;;;;;;;0.82;0.43;;;;;;;16.80;100.00;99452.25;5052556;28;20056;-59
2021/07/12 10:59:26;;;;;;;1.77;0.35;;;;;;;16.72;100.00;99456.19;5052151;28;20056;-59
2021/07/12 11:02:31;;;;;;;4.10;0.50;;;;;;;16.58;100.00;99447.63;5052072;28;20056;-58
2021/07/12 11:05:50;;;;;;;0.95;0.25;;;;;;;16.59;100.00;99451.94;5052051;28;20048;-58
2021/07/12 11:09:00;;;;;;;1.08;0.22;;;;;;;16.51;100.00;99455.88;5052526;28;20055;-58
2021/07/12 11:12:49;;;;;;;0.77;0.28;;;;;;;16.62;100.00;99461.38;5054735;28;20043;-59
2021/07/12 11:16:13;;;;;;;0.50;0.40;;;;;;;16.71;100.00;99460.28;5014726;28;20064;-58
2021/07/12 11:19:24;;;;;;;1.00;0.50;;;;;;;17.06;100.00;99462.94;5020639;28;20512;-59
2021/07/12 11:22:28;;;;;;;1.20;0.38;;;;;;;17.34;100.00;99454.91;5056427;28;20048;-58
2021/07/12 11:25:37;;;;;;;1.98;0.50;;;;;;;17.69;100.00;99446.28;5056086;28;20044;-58
2021/07/12 11:28:43;;;;;;;0.65;0.20;;;;;;;17.91;100.00;99448.00;5056414;28;20044;-58
2021/07/12 11:31:56;;;;;;;1.17;0.40;;;;;;;18.07;100.00;99442.09;5056424;28;20052;-58
2021/07/12 11:35:06;;;;;;;1.75;0.68;;;;;;;18.27;100.00;99442.78;5040244;28;20056;-58
2021/07/12 11:38:10;;;;;;;1.02;0.32;;;;;;;18.52;100.00;99441.31;5041229;28;20537;-58
2021/07/12 11:41:14;;;;;;;7.40;0.50;;;;;;;18.70;100.00;99429.19;5055613;28;20048;-58
2021/07/12 11:44:20;;;;;;;0.68;0.25;;;;;;;18.68;100.00;99431.81;5055057;28;20060;-58
2021/07/12 11:47:30;;;;;;;2.20;0.45;;;;;;;18.75;100.00;99429.09;5040042;28;20052;-58
2021/07/12 11:50:35;;;;;;;3.67;0.20;;;;;;;18.76;100.00;99421.38;5049944;28;20052;-58
2021/07/12 11:53:45;;;;;;;1.02;0.20;;;;;;;18.61;100.00;99421.94;5054770;28;20484;-57
2021/07/12 11:57:05;;;;;;;4.30;0.30;;;;;;;18.49;100.00;99425.50;5055574;28;20060;-58
2021/07/12 12:00:12;;;;;;;9.48;0.43;;;;;;;18.19;100.00;99423.69;5055616;28;20048;-57
2021/07/12 12:03:16;;;;;;;0.57;0.20;;;;;;;17.84;100.00;99426.06;5054177;28;20052;-57
2021/07/12 12:06:24;;;;;;;0.93;0.30;;;;;;;17.70;100.00;99435.75;5055111;28;20044;-56
2021/07/12 12:09:28;;;;;;;0.55;0.20;;;;;;;17.53;100.00;99433.19;5055220;28;20047;-56
2021/07/12 12:12:35;;;;;;;1.95;0.30;;;;;;;17.44;100.00;99439.16;5054864;28;20052;-57
2021/07/12 12:15:41;;;;;;;1.67;0.57;;;;;;;17.53;100.00;99438.03;5055416;28;20051;-57
2021/07/12 12:18:45;;;;;;;6.57;0.57;;;;;;;17.53;100.00;99444.44;5055110;28;20405;-57
2021/07/12 12:21:48;;;;;;;1.23;0.43;;;;;;;17.48;100.00;99442.44;5055130;28;20044;-57
2021/07/12 12:24:53;;;;;;;1.58;0.77;;;;;;;17.54;100.00;99451.63;5055489;28;20047;-57
2021/07/12 12:27:57;;;;;;;1.38;0.55;;;;;;;17.60;100.00;99448.72;5055445;28;20505;-57
2021/07/12 12:31:07;;;;;;;12.52;0.45;;;;;;;17.52;100.00;99454.19;5055459;28;20492;-57
2021/07/12 12:34:13;;;;;;;3.92;1.13;;;;;;;17.38;100.00;99449.75;5055369;28;20048;-57
2021/07/12 12:37:16;;;;;;;1.25;0.52;;;;;;;17.23;100.00;99455.06;5055000;28;20044;-57
2021/07/12 12:40:23;;;;;;;2.20;0.60;;;;;;;17.17;100.00;99455.13;5054671;28;20052;-57
2021/07/12 12:43:28;;;;;;;4.85;1.02;;;;;;;17.12;100.00;99450.34;5054845;28;20056;-57
2021/07/12 12:46:53;;;;;;;5.78;1.63;;;;;;;17.06;100.00;99457.31;5054838;28;20116;-57
2021/07/12 12:49:56;;;;;;;2.10;1.17;;;;;;;16.98;100.00;99462.03;5055086;28;20048;-57
2021/07/12 12:53:05;;;;;;;9.95;1.73;;;;;;;16.98;100.00;99459.22;5054434;28;20516;-57
2021/07/12 12:56:09;;;;;;;6.30;1.60;;;;;;;16.88;100.00;99458.03;5054019;28;20051;-57
2021/07/12 12:59:14;;;;;;;8.95;0.93;;;;;;;16.73;100.00;99463.31;5054556;28;20052;-57
2021/07/12 13:02:20;;;;;;;3.28;1.25;;;;;;;16.64;100.00;99462.38;5054691;28;20055;-57
2021/07/12 13:05:25;;;;;;;2.75;0.70;;;;;;;16.65;100.00;99466.69;5054601;28;20393;-57
2021/07/12 13:08:29;;;;;;;3.85;0.80;;;;;;;16.68;100.00;99464.91;5054138;28;20044;-57
2021/07/12 13:11:34;;;;;;;2.03;0.75;;;;;;;16.62;100.00;99459.34;5054196;28;20047;-57
2021/07/12 13:14:52;;;;;;;5.07;0.98;;;;;;;16.83;100.00;99456.06;5054037;28;20056;-58
2021/07/12 13:18:01;;;;;;;1.40;0.60;;;;;;;17.12;100.00;99455.19;5054168;28;20048;-57
2021/07/12 13:21:05;;;;;;;1.58;0.63;;;;;;;17.43;100.00;99451.72;5064625;28;20417;-57
2021/07/12 13:24:08;;;;;;;1.52;0.70;;;;;;;17.71;100.00;99454.94;5054186;28;20067;-57
2021/07/12 13:27:22;;;;;;;2.53;0.50;;;;;;;17.94;100.00;99444.84;5053699;28;20120;-58
2021/07/12 13:30:29;;;;;;;2.15;0.70;;;;;;;18.12;100.00;99446.88;5054062;28;20056;-58
2021/07/12 13:33:32;;;;;;;2.22;0.50;;;;;;;18.32;100.00;99451.13;5052837;28;20504;-58
2021/07/12 13:36:36;;;;;;;4.20;0.85;;;;;;;18.37;100.00;99447.47;5053462;28;20048;-57
2021/07/12 13:39:39;;;;;;;2.17;0.13;;;;;;;18.21;100.00;99445.72;5045383;28;20539;-54
2021/07/12 13:42:43;;;;;;;1.15;0.30;;;;;;;18.23;100.00;99439.53;5053249;28;20397;-54
2021/07/12 13:45:46;;;;;;;2.08;0.93;;;;;;;18.28;100.00;99438.69;5053563;28;20056;-54
2021/07/12 13:48:50;;;;;;;1.10;0.35;;;;;;;18.29;100.00;99437.38;5053316;28;20493;-54
2021/07/12 13:51:53;;;;;;;3.35;0.80;;;;;;;18.38;100.00;99436.94;5053788;28;20060;-54
2021/07/12 13:54:57;;;;;;;1.95;0.40;;;;;;;18.42;100.00;99438.16;5053514;28;20052;-55
2021/07/12 13:58:02;;;;;;;1.33;0.47;;;;;;;18.40;100.00;99440.00;5053639;28;20064;-54
2021/07/12 14:01:05;;;;;;;1.52;0.45;;;;;;;18.47;100.00;99439.38;5053225;28;20044;-54
2021/07/12 14:04:09;;;;;;;0.13;0.13;;;;;;;18.44;100.00;99429.16;5053388;28;20512;-54
2021/07/12 14:07:14;;;;;;;0.90;0.40;;;;;;;18.50;100.00;99438.28;5053419;28;20048;-54
2021/07/12 14:10:20;;;;;;;0.82;0.50;;;;;;;18.44;100.00;99429.16;5053324;28;20048;-54
2021/07/12 14:13:22;;;;;;;0.98;0.30;;;;;;;18.54;100.00;99438.72;5053058;28;20044;-54
2021/07/12 14:16:26;;;;;;;3.80;0.30;;;;;;;18.57;100.00;99437.66;5052903;28;20044;-54
2021/07/12 14:19:29;;;;;;;0.63;0.10;;;;;;;18.55;100.00;99440.25;5052722;28;20600;-54
2021/07/12 14:22:33;;;;;;;1.67;0.35;;;;;;;18.57;100.00;99432.78;5052974;28;20052;-54
2021/07/12 14:25:37;;;;;;;0.68;0.10;;;;;;;18.65;100.00;99430.81;5053000;28;20373;-54
2021/07/12 14:28:40;;;;;;;0.25;0.20;;;;;;;18.76;100.00;99438.31;5052580;28;20056;-54